Time;durP1;ratioP1;P1;durP2;ratioP2;P2;SDS_P1;SDS_P2;PMS_P1;PMS_P2;Temp;Humidity;BMP_temperature;BMP_pressure;BME280_temperature;BME280_humidity;BME280_pressure;Samples;Min_cycle;Max_cycle;Signal;HPM_P1;HPM_P2
2021/07/15 00:00:18;;;;;;;10.53;9.73;;;21.20;1.00;;;;;;5133335;27;20441;-78
2021/07/15 00:02:44;;;;;;;10.43;9.43;;;21.10;1.00;;;;;;5137353;27;20456;-78
2021/07/15 00:05:15;;;;;;;10.80;9.90;;;21.10;1.00;;;;;;5131761;27;20454;-78
2021/07/15 00:07:43;;;;;;;10.73;9.93;;;21.00;1.00;;;;;;5115514;27;20452;-77
2021/07/15 00:10:18;;;;;;;12.07;11.07;;;21.00;1.00;;;;;;5133161;27;20478;-77
2021/07/15 00:12:45;;;;;;;10.60;9.80;;;21.00;1.00;;;;;;5132520;27;20448;-78
2021/07/15 00:15:13;;;;;;;11.10;10.30;;;20.90;1.00;;;;;;5136581;27;20435;-77
2021/07/15 00:17:40;;;;;;;11.77;10.87;;;20.90;1.00;;;;;;5135588;22;20473;-76
2021/07/15 00:20:11;;;;;;;11.00;10.20;;;20.90;1.00;;;;;;5070347;28;21291;-77
2021/07/15 00:22:40;;;;;;;11.33;10.50;;;20.80;1.00;;;;;;5068412;28;20434;-76
2021/07/15 00:25:09;;;;;;;11.87;10.87;;;20.80;1.00;;;;;;5068411;28;20467;-76
2021/07/15 00:27:36;;;;;;;11.00;10.20;;;20.80;1.00;;;;;;5030283;28;20450;-76
2021/07/15 00:30:04;;;;;;;11.60;10.47;;;20.80;1.00;;;;;;5050890;28;21724;-76
2021/07/15 00:32:31;;;;;;;10.73;9.73;;;20.70;1.00;;;;;;5047908;28;20460;-77
2021/07/15 00:34:57;;;;;;;11.13;10.23;;;20.70;1.00;;;;;;5045467;28;20448;-77
2021/07/15 00:37:24;;;;;;;10.87;10.07;;;20.60;1.00;;;;;;5047361;28;21065;-76
2021/07/15 00:39:52;;;;;;;12.13;10.90;;;20.60;1.00;;;;;;5045644;28;20449;-77
2021/07/15 00:42:18;;;;;;;11.10;10.20;;;20.60;1.00;;;;;;5048009;28;20459;-76
2021/07/15 00:44:45;;;;;;;11.73;10.73;;;20.60;1.00;;;;;;5048502;28;20641;-77
2021/07/15 00:47:12;;;;;;;11.17;10.17;;;20.50;1.00;;;;;;5046994;28;20934;-76
2021/07/15 00:49:39;;;;;;;11.30;10.40;;;20.50;1.00;;;;;;5050723;28;20473;-75
2021/07/15 00:52:11;;;;;;;11.77;10.70;;;20.50;1.00;;;;;;5049234;28;20513;-77
2021/07/15 00:54:39;;;;;;;11.20;10.40;;;20.50;1.00;;;;;;5051171;28;20507;-75
2021/07/15 00:57:08;;;;;;;12.67;11.50;;;20.40;1.00;;;;;;5049357;28;20485;-75
2021/07/15 00:59:36;;;;;;;11.10;10.20;;;20.40;1.00;;;;;;5050846;28;20467;-76
2021/07/15 01:02:04;;;;;;;11.30;10.40;;;20.30;1.00;;;;;;5050576;28;20463;-76
2021/07/15 01:04:30;;;;;;;11.13;10.23;;;20.20;1.00;;;;;;5049718;28;20539;-74
2021/07/15 01:06:57;;;;;;;12.10;11.00;;;20.20;1.00;;;;;;5053964;28;20440;-77
2021/07/15 01:09:24;;;;;;;11.63;10.73;;;20.10;1.00;;;;;;5044483;28;20472;-76
2021/07/15 01:11:58;;;;;;;11.50;10.60;;;20.00;1.00;;;;;;5052404;28;21410;-77
2021/07/15 01:14:29;;;;;;;12.30;11.30;;;19.90;1.00;;;;;;5045037;28;20444;-77
2021/07/15 01:17:03;;;;;;;11.17;10.23;;;19.90;1.00;;;;;;5047278;28;20440;-76
2021/07/15 01:19:58;;;;;;;10.30;9.50;;;19.80;1.00;;;;;;5052707;28;20504;-76
2021/07/15 01:22:30;;;;;;;11.47;10.57;;;19.70;1.00;;;;;;5054878;28;20447;-76
2021/07/15 01:25:41;;;;;;;11.17;10.30;;;19.60;1.00;;;;;;5050232;28;21006;-76
2021/07/15 01:28:16;;;;;;;11.53;10.53;;;19.60;1.00;;;;;;5050500;28;21001;-75
2021/07/15 01:30:47;;;;;;;10.60;9.70;;;19.60;1.00;;;;;;5050196;28;20810;-77
2021/07/15 01:33:17;;;;;;;10.47;9.57;;;19.60;1.00;;;;;;5050265;28;20981;-76
2021/07/15 01:35:49;;;;;;;9.40;8.63;;;19.60;1.00;;;;;;5050374;28;20456;-76
2021/07/15 01:38:18;;;;;;;8.70;8.00;;;19.60;1.00;;;;;;5051040;28;20447;-77
2021/07/15 01:40:47;;;;;;;9.10;8.30;;;19.70;1.00;;;;;;5050255;28;20452;-77
2021/07/15 01:43:17;;;;;;;9.70;8.70;;;19.70;1.00;;;;;;5037208;28;20530;-76
2021/07/15 01:45:46;;;;;;;10.00;9.10;;;19.70;1.00;;;;;;5049044;28;20465;-77
2021/07/15 01:48:14;;;;;;;10.60;9.73;;;19.70;1.00;;;;;;5049209;28;20895;-77
2021/07/15 01:50:41;;;;;;;9.30;8.40;;;19.70;1.00;;;;;;5049647;28;20472;-76
2021/07/15 01:53:08;;;;;;;11.30;9.00;;;19.70;1.00;;;;;;5052150;28;20457;-77
2021/07/15 01:55:35;;;;;;;8.83;7.97;;;19.70;1.00;;;;;;5053516;28;20428;-76
2021/07/15 01:58:03;;;;;;;8.63;7.87;;;19.70;1.00;;;;;;5048165;28;21211;-76
2021/07/15 02:00:31;;;;;;;8.40;6.00;;;19.70;1.00;;;;;;5048749;28;20525;-76
2021/07/15 02:03:02;;;;;;;6.40;5.90;;;19.70;1.00;;;;;;5049218;28;20451;-75
2021/07/15 02:05:29;;;;;;;7.90;7.10;;;19.80;1.00;;;;;;5041365;28;20467;-75
2021/07/15 02:07:59;;;;;;;7.10;6.50;;;19.80;1.00;;;;;;5058073;28;20459;-75
2021/07/15 02:10:27;;;;;;;6.87;6.17;;;19.80;1.00;;;;;;5035794;28;20480;-75
2021/07/15 02:12:56;;;;;;;8.67;7.77;;;19.80;1.00;;;;;;5055601;28;20888;-77
2021/07/15 02:15:24;;;;;;;6.70;6.00;;;19.80;1.00;;;;;;5047686;28;20462;-75
2021/07/15 02:17:51;;;;;;;6.33;5.43;;;19.80;1.00;;;;;;5048890;28;20550;-76
2021/07/15 02:20:22;;;;;;;6.63;6.13;;;19.80;1.00;;;;;;5045068;28;20456;-76
2021/07/15 02:22:50;;;;;;;6.23;5.63;;;19.80;1.00;;;;;;5047984;28;20454;-77
2021/07/15 02:25:18;;;;;;;5.80;5.30;;;19.80;1.00;;;;;;5046515;28;20543;-76
2021/07/15 02:27:47;;;;;;;6.40;5.90;;;19.80;1.00;;;;;;5045091;28;20472;-75
2021/07/15 02:30:17;;;;;;;6.17;5.60;;;19.80;1.00;;;;;;5046082;28;21274;-75
2021/07/15 02:32:47;;;;;;;6.63;6.03;;;19.70;1.00;;;;;;5048326;28;20530;-76
2021/07/15 02:35:17;;;;;;;5.83;5.43;;;19.70;1.00;;;;;;5047522;28;21335;-76
2021/07/15 02:37:47;;;;;;;5.73;5.33;;;19.80;1.00;;;;;;5043758;28;20450;-77
2021/07/15 02:40:17;;;;;;;5.17;4.77;;;19.70;1.00;;;;;;5050295;28;20777;-76
2021/07/15 02:42:46;;;;;;;6.00;5.50;;;19.70;1.00;;;;;;5051103;28;20518;-77
2021/07/15 02:45:19;;;;;;;6.10;5.63;;;19.70;1.00;;;;;;5049832;28;20468;-76
2021/07/15 02:47:47;;;;;;;6.40;5.80;;;19.70;1.00;;;;;;5046114;28;20440;-76
2021/07/15 02:50:16;;;;;;;6.53;6.03;;;19.60;1.00;;;;;;5047822;28;20452;-76
2021/07/15 02:52:43;;;;;;;6.43;5.83;;;19.60;1.00;;;;;;5046693;28;20441;-76
2021/07/15 02:55:13;;;;;;;6.57;5.93;;;19.50;1.00;;;;;;5045986;28;20478;-75
2021/07/15 02:57:49;;;;;;;7.63;5.90;;;19.60;1.00;;;;;;5046907;28;20554;-75
2021/07/15 03:00:18;;;;;;;5.93;5.43;;;19.50;1.00;;;;;;5049095;28;20471;-76
2021/07/15 03:02:49;;;;;;;5.63;5.13;;;19.50;1.00;;;;;;5031054;28;20467;-78
2021/07/15 03:05:20;;;;;;;7.07;6.47;;;19.50;1.00;;;;;;5047633;28;20528;-75
2021/07/15 03:07:50;;;;;;;7.07;6.37;;;19.50;1.00;;;;;;5045304;28;21101;-75
2021/07/15 03:10:21;;;;;;;7.17;6.57;;;19.40;1.00;;;;;;5048126;28;20462;-76
2021/07/15 03:12:49;;;;;;;12.17;6.77;;;19.40;1.00;;;;;;5044423;28;20412;-76
2021/07/15 03:15:17;;;;;;;7.73;6.93;;;19.40;1.00;;;;;;5043953;28;21332;-75
2021/07/15 03:17:48;;;;;;;7.70;7.00;;;19.40;1.00;;;;;;5043633;28;20472;-76
2021/07/15 03:20:17;;;;;;;8.60;6.77;;;19.40;1.00;;;;;;5047902;28;20993;-75
2021/07/15 03:22:48;;;;;;;8.10;7.20;;;19.50;1.00;;;;;;5046839;28;20525;-76
2021/07/15 03:25:18;;;;;;;8.03;7.23;;;19.50;1.00;;;;;;5048471;28;20601;-76
2021/07/15 03:27:49;;;;;;;7.83;7.13;;;19.50;1.00;;;;;;5044989;28;20423;-77
2021/07/15 03:30:17;;;;;;;8.63;7.03;;;19.50;1.00;;;;;;5046897;28;23211;-77
2021/07/15 03:32:48;;;;;;;6.90;6.20;;;19.50;1.00;;;;;;5030156;28;20468;-76
2021/07/15 03:35:16;;;;;;;7.30;6.70;;;19.50;1.00;;;;;;5046438;28;20525;-76
2021/07/15 03:37:43;;;;;;;7.13;6.43;;;19.50;1.00;;;;;;5049600;28;20531;-77
2021/07/15 03:40:11;;;;;;;9.03;8.13;;;19.50;1.00;;;;;;5047364;28;20463;-77
2021/07/15 03:42:40;;;;;;;7.23;6.60;;;19.50;1.00;;;;;;5050235;28;20455;-77
2021/07/15 03:45:09;;;;;;;7.33;6.70;;;19.40;1.00;;;;;;5046646;28;20542;-78
2021/07/15 03:47:36;;;;;;;7.13;6.43;;;19.50;1.00;;;;;;5051109;28;21018;-77
2021/07/15 03:50:05;;;;;;;9.33;7.60;;;19.50;1.00;;;;;;5050087;28;20728;-77
2021/07/15 03:52:32;;;;;;;8.13;7.43;;;19.50;1.00;;;;;;5045622;28;20447;-76
2021/07/15 03:55:00;;;;;;;8.30;7.50;;;19.50;1.00;;;;;;5043485;28;20459;-78
2021/07/15 03:57:28;;;;;;;8.10;7.40;;;19.60;1.00;;;;;;5045707;28;20443;-78
2021/07/15 03:59:59;;;;;;;7.53;6.80;;;19.60;1.00;;;;;;5047680;28;20463;-77
2021/07/15 04:02:28;;;;;;;8.43;7.50;;;19.60;1.00;;;;;;5048728;28;20428;-77
2021/07/15 04:04:56;;;;;;;7.43;6.80;;;19.60;1.00;;;;;;5051279;28;20483;-77
2021/07/15 04:07:27;;;;;;;9.27;8.37;;;19.50;1.00;;;;;;5045769;28;20464;-78
2021/07/15 04:09:55;;;;;;;7.53;6.87;;;19.50;1.00;;;;;;5029960;28;20447;-78
2021/07/15 04:12:24;;;;;;;8.23;7.33;;;19.60;1.00;;;;;;5049185;28;20451;-78
2021/07/15 04:15:05;;;;;;;11.00;8.13;;;19.70;1.00;;;;;;5030552;28;20534;-77
2021/07/15 04:17:35;;;;;;;9.80;8.90;;;19.80;1.00;;;;;;5046061;28;20445;-77
2021/07/15 04:20:06;;;;;;;8.87;8.07;;;19.90;1.00;;;;;;5048955;28;20452;-77
2021/07/15 04:22:33;;;;;;;8.20;7.33;;;20.00;1.00;;;;;;5049676;28;20443;-77
2021/07/15 04:25:01;;;;;;;10.13;9.23;;;20.10;1.00;;;;;;5046933;28;20517;-77
2021/07/15 04:27:29;;;;;;;9.83;9.03;;;20.10;1.00;;;;;;5048668;28;20531;-76
2021/07/15 04:30:01;;;;;;;10.20;9.20;;;20.10;1.00;;;;;;5050784;28;20468;-77
2021/07/15 04:32:34;;;;;;;9.03;8.17;;;20.10;1.00;;;;;;5048289;28;20476;-78
2021/07/15 04:35:01;;;;;;;11.30;10.13;;;20.20;1.00;;;;;;5051821;28;20478;-78
2021/07/15 04:37:28;;;;;;;11.03;9.97;;;20.20;1.00;;;;;;5050251;28;20521;-77
2021/07/15 04:39:55;;;;;;;9.03;8.33;;;20.30;1.00;;;;;;5053008;28;20452;-78
2021/07/15 04:42:23;;;;;;;10.67;9.70;;;20.40;1.00;;;;;;5050686;28;20519;-77
2021/07/15 04:44:51;;;;;;;9.97;9.03;;;20.50;1.00;;;;;;5051376;28;20446;-77
2021/07/15 04:47:21;;;;;;;8.70;7.87;;;20.50;1.00;;;;;;5049491;28;20445;-78
2021/07/15 04:49:49;;;;;;;8.63;7.93;;;20.60;1.00;;;;;;5053770;28;20448;-78
2021/07/15 04:52:18;;;;;;;10.53;9.43;;;20.60;1.00;;;;;;5051098;28;20471;-77
2021/07/15 04:54:47;;;;;;;7.70;7.10;;;20.60;1.00;;;;;;5036984;28;20783;-76
2021/07/15 04:57:14;;;;;;;9.40;8.50;;;20.50;1.00;;;;;;5051840;28;20419;-77
2021/07/15 04:59:41;;;;;;;7.10;6.50;;;20.50;1.00;;;;;;5052068;28;21423;-78
2021/07/15 05:02:08;;;;;;;8.37;7.57;;;20.60;1.00;;;;;;5050255;28;20414;-78
2021/07/15 05:04:35;;;;;;;7.97;7.00;;;20.60;1.00;;;;;;5048000;28;20425;-76
2021/07/15 05:07:04;;;;;;;8.80;7.77;;;20.70;1.00;;;;;;5051058;28;21019;-76
2021/07/15 05:09:31;;;;;;;8.53;7.80;;;20.70;1.00;;;;;;5034062;28;20469;-78
2021/07/15 05:11:57;;;;;;;7.73;7.00;;;20.80;1.00;;;;;;5052162;28;20471;-77
2021/07/15 05:14:24;;;;;;;7.80;7.20;;;20.80;1.00;;;;;;5048910;28;20447;-78
2021/07/15 05:16:50;;;;;;;6.73;6.07;;;20.90;1.00;;;;;;5052456;28;21010;-77
2021/07/15 05:19:17;;;;;;;10.30;9.30;;;21.00;1.00;;;;;;5054405;28;20456;-79
2021/07/15 05:21:44;;;;;;;7.87;7.07;;;21.00;1.00;;;;;;5059638;28;21308;-78
2021/07/15 05:24:12;;;;;;;6.70;6.10;;;21.00;1.00;;;;;;5057649;28;20454;-75
2021/07/15 05:26:38;;;;;;;7.63;6.83;;;21.00;1.00;;;;;;5052271;28;20466;-76
2021/07/15 05:29:05;;;;;;;7.10;6.17;;;21.00;1.00;;;;;;5050135;28;20929;-77
2021/07/15 05:31:31;;;;;;;7.10;6.33;;;21.00;1.00;;;;;;5055762;28;20417;-78
2021/07/15 05:33:58;;;;;;;6.87;6.37;;;21.00;1.00;;;;;;5057711;28;20453;-78
2021/07/15 05:36:25;;;;;;;6.43;5.70;;;21.00;1.00;;;;;;5053340;28;20450;-79
2021/07/15 05:38:52;;;;;;;6.83;5.10;;;21.00;1.00;;;;;;5050054;28;20586;-75
2021/07/15 05:41:20;;;;;;;5.73;5.23;;;21.00;1.00;;;;;;5051140;28;20444;-77
2021/07/15 05:43:46;;;;;;;5.67;5.13;;;21.10;1.00;;;;;;5055406;28;23175;-76
2021/07/15 05:46:13;;;;;;;5.83;4.97;;;21.20;1.00;;;;;;5052167;28;20421;-77
2021/07/15 05:48:40;;;;;;;6.10;5.10;;;21.40;1.00;;;;;;5053943;28;20418;-75
2021/07/15 05:51:06;;;;;;;6.13;5.53;;;21.50;1.00;;;;;;5050044;28;20436;-78
2021/07/15 05:53:33;;;;;;;6.57;4.80;;;21.60;1.00;;;;;;5053613;28;20498;-77
2021/07/15 05:55:59;;;;;;;4.57;4.17;;;21.70;1.00;;;;;;5067235;28;20459;-77
2021/07/15 05:58:27;;;;;;;5.07;3.70;;;21.90;1.00;;;;;;5058114;28;20487;-76
2021/07/15 06:00:54;;;;;;;7.30;4.40;;;22.00;1.00;;;;;;5058328;28;20562;-78
2021/07/15 06:03:21;;;;;;;5.27;3.57;;;21.90;1.00;;;;;;5055505;28;22631;-79
2021/07/15 06:05:47;;;;;;;4.10;3.60;;;21.90;1.00;;;;;;5054349;28;20530;-77
2021/07/15 06:08:14;;;;;;;4.80;4.03;;;21.90;1.00;;;;;;5055906;28;20456;-77
2021/07/15 06:10:41;;;;;;;5.33;3.53;;;21.90;1.00;;;;;;5054568;28;20489;-77
2021/07/15 06:13:07;;;;;;;8.93;3.80;;;21.80;1.00;;;;;;5053387;28;20500;-76
2021/07/15 06:15:35;;;;;;;5.23;4.20;;;21.80;1.00;;;;;;5049519;28;20657;-76
2021/07/15 06:18:02;;;;;;;4.67;4.07;;;21.70;1.00;;;;;;5051264;28;21414;-77
2021/07/15 06:20:29;;;;;;;4.40;4.00;;;21.70;1.00;;;;;;5050487;28;20457;-77
2021/07/15 06:22:55;;;;;;;5.03;4.47;;;21.80;1.00;;;;;;5053788;28;20465;-76
2021/07/15 06:25:25;;;;;;;7.90;7.13;;;21.90;1.00;;;;;;5053620;28;20567;-76
2021/07/15 06:27:53;;;;;;;4.50;3.97;;;22.10;1.00;;;;;;5057084;28;20666;-76
2021/07/15 06:30:20;;;;;;;4.87;3.50;;;22.30;1.00;;;;;;5058424;28;20430;-78
2021/07/15 06:32:48;;;;;;;4.37;3.97;;;22.50;1.00;;;;;;5057245;28;20480;-77
2021/07/15 06:35:17;;;;;;;4.10;3.60;;;22.70;1.00;;;;;;5052913;28;20443;-77
2021/07/15 06:37:48;;;;;;;5.17;3.47;;;22.90;1.00;;;;;;5056379;28;20479;-79
2021/07/15 06:40:15;;;;;;;4.03;3.63;;;23.00;1.00;;;;;;5052388;28;20480;-77
2021/07/15 06:42:42;;;;;;;2.70;2.50;;;23.10;1.00;;;;;;5054097;28;20525;-76
2021/07/15 06:45:10;;;;;;;3.80;3.40;;;23.10;1.00;;;;;;5053574;28;20439;-78
2021/07/15 06:47:37;;;;;;;3.80;3.03;;;23.20;1.00;;;;;;5055297;28;20531;-76
2021/07/15 06:50:08;;;;;;;5.77;3.77;;;23.20;1.00;;;;;;5052268;28;20534;-78
2021/07/15 06:52:35;;;;;;;4.10;3.73;;;23.30;1.00;;;;;;5051688;28;20545;-77
2021/07/15 06:55:02;;;;;;;3.67;3.37;;;23.40;1.00;;;;;;5052932;28;20554;-77
2021/07/15 06:57:29;;;;;;;4.30;3.80;;;23.40;1.00;;;;;;5055634;28;21027;-77
2021/07/15 06:59:56;;;;;;;5.17;4.20;;;23.50;1.00;;;;;;5052029;28;20452;-77
2021/07/15 07:02:23;;;;;;;4.30;3.80;;;23.70;1.00;;;;;;5056911;28;20465;-77
2021/07/15 07:04:50;;;;;;;4.23;3.83;;;23.80;1.00;;;;;;5054038;28;20482;-79
2021/07/15 07:07:18;;;;;;;3.93;3.53;;;24.00;1.00;;;;;;5036185;28;20462;-80
2021/07/15 07:09:48;;;;;;;4.70;4.30;;;24.10;1.00;;;;;;5054468;28;20452;-75
2021/07/15 07:12:14;;;;;;;4.70;4.30;;;24.20;1.00;;;;;;5055141;28;20501;-76
2021/07/15 07:14:41;;;;;;;7.23;5.07;;;24.30;1.00;;;;;;5052268;28;20466;-76
2021/07/15 07:17:08;;;;;;;4.17;3.70;;;24.40;1.00;;;;;;5051627;28;21406;-78
2021/07/15 07:19:35;;;;;;;4.47;4.07;;;24.60;1.00;;;;;;5056377;28;20571;-77
2021/07/15 07:22:02;;;;;;;4.10;3.67;;;24.70;1.00;;;;;;5056562;28;20430;-77
2021/07/15 07:24:30;;;;;;;5.60;4.63;;;24.80;1.00;;;;;;5051880;28;20554;-79
2021/07/15 07:26:56;;;;;;;4.30;3.90;;;24.80;1.00;;;;;;5049096;28;20952;-78
2021/07/15 07:29:23;;;;;;;4.67;4.17;;;24.90;1.00;;;;;;5053409;28;20445;-77
2021/07/15 07:31:50;;;;;;;3.63;3.33;;;24.90;1.00;;;;;;5053182;28;20520;-78
2021/07/15 07:34:17;;;;;;;4.83;3.83;;;24.90;1.00;;;;;;5054523;28;20974;-77
2021/07/15 07:36:44;;;;;;;3.40;3.10;;;24.90;1.00;;;;;;5056185;28;20465;-78
2021/07/15 07:39:11;;;;;;;4.17;3.47;;;24.80;1.00;;;;;;5058069;28;20451;-78
2021/07/15 07:41:39;;;;;;;3.17;2.87;;;24.50;1.00;;;;;;5053981;28;20579;-77
2021/07/15 07:44:06;;;;;;;3.23;2.93;;;24.30;1.00;;;;;;5055122;28;20466;-78
2021/07/15 07:46:33;;;;;;;4.47;4.07;;;24.10;1.00;;;;;;5054647;28;20573;-78
2021/07/15 07:49:00;;;;;;;4.30;3.07;;;23.90;1.00;;;;;;5034902;28;20464;-77
2021/07/15 07:51:27;;;;;;;5.43;3.60;;;23.90;1.00;;;;;;5053899;28;20462;-77
2021/07/15 07:53:55;;;;;;;4.57;3.10;;;24.00;1.00;;;;;;5052480;28;21327;-77
2021/07/15 07:56:22;;;;;;;4.93;2.93;;;24.20;1.00;;;;;;5054675;28;20458;-77
2021/07/15 07:58:50;;;;;;;3.93;2.50;;;24.50;1.00;;;;;;5050892;28;20439;-79
2021/07/15 08:01:17;;;;;;;4.60;3.20;;;24.90;1.00;;;;;;5054075;28;20529;-79
2021/07/15 08:03:44;;;;;;;5.17;3.33;;;25.20;1.00;;;;;;5054683;28;21332;-78
2021/07/15 08:06:10;;;;;;;5.20;3.10;;;25.50;1.00;;;;;;5054022;28;20425;-78
2021/07/15 08:08:39;;;;;;;4.20;2.87;;;25.60;1.00;;;;;;5037031;28;20491;-78
2021/07/15 08:11:06;;;;;;;5.40;2.80;;;25.60;1.00;;;;;;5055431;28;20491;-79
2021/07/15 08:13:34;;;;;;;3.70;2.60;;;25.70;1.00;;;;;;5059072;28;21048;-78
2021/07/15 08:16:02;;;;;;;3.33;2.47;;;25.60;1.00;;;;;;5057155;28;20473;-79
2021/07/15 08:18:29;;;;;;;6.10;3.47;;;25.60;1.00;;;;;;5057237;28;20466;-78
2021/07/15 08:20:56;;;;;;;3.50;2.33;;;25.70;1.00;;;;;;5059514;28;20431;-80
2021/07/15 08:23:23;;;;;;;5.80;3.40;;;25.80;1.00;;;;;;5054112;28;20464;-78
2021/07/15 08:25:49;;;;;;;2.97;2.20;;;25.80;1.00;;;;;;5055004;28;20492;-78
2021/07/15 08:28:16;;;;;;;3.97;2.93;;;25.80;1.00;;;;;;5052578;28;20444;-79
2021/07/15 08:30:43;;;;;;;2.60;2.40;;;26.00;1.00;;;;;;5056483;28;21278;-76
2021/07/15 08:33:11;;;;;;;2.77;2.40;;;26.10;1.00;;;;;;5052494;28;20598;-77
2021/07/15 08:35:37;;;;;;;3.17;2.63;;;26.10;1.00;;;;;;5054125;28;20461;-77
2021/07/15 08:38:05;;;;;;;4.63;2.37;;;26.20;1.00;;;;;;5055079;28;20449;-78
2021/07/15 08:40:31;;;;;;;3.90;2.67;;;26.50;1.00;;;;;;5055664;28;20450;-78
2021/07/15 08:42:58;;;;;;;4.03;2.90;;;26.90;1.00;;;;;;5057441;28;20451;-78
2021/07/15 08:45:25;;;;;;;3.73;2.63;;;27.20;1.00;;;;;;5055277;28;20459;-77
2021/07/15 08:47:55;;;;;;;4.37;2.23;;;27.40;1.00;;;;;;5054740;28;20426;-78
2021/07/15 08:50:23;;;;;;;4.20;2.90;;;27.40;1.00;;;;;;5053472;28;20442;-77
2021/07/15 08:52:51;;;;;;;2.93;2.67;;;27.30;1.00;;;;;;5057561;28;20456;-77
2021/07/15 08:56:36;;;;;;;4.13;2.70;;;27.20;1.00;;;;;;5055921;28;20447;-77
2021/07/15 08:58:10;;;;;;;4.23;2.87;;;27.20;1.00;;;;;;5057004;28;20477;-78
2021/07/15 09:00:37;;;;;;;2.80;2.40;;;27.50;1.00;;;;;;5058359;28;20442;-77
2021/07/15 09:03:03;;;;;;;6.03;5.63;;;27.80;1.00;;;;;;5055974;28;20441;-78
2021/07/15 09:05:31;;;;;;;5.93;3.03;;;28.00;1.00;;;;;;5057394;28;20473;-79
2021/07/15 09:07:58;;;;;;;2.93;2.60;;;28.20;1.00;;;;;;5055104;28;20540;-78
2021/07/15 09:10:25;;;;;;;2.53;2.20;;;28.10;1.00;;;;;;5069201;28;20454;-77
2021/07/15 09:12:52;;;;;;;2.70;2.50;;;28.00;1.00;;;;;;5075788;28;20507;-76
2021/07/15 09:15:18;;;;;;;4.40;2.90;;;28.00;1.00;;;;;;5058597;28;20461;-79
2021/07/15 09:17:46;;;;;;;2.60;2.40;;;28.10;1.00;;;;;;5058447;28;20420;-78
2021/07/15 09:20:18;;;;;;;2.83;2.63;;;28.20;1.00;;;;;;5057178;28;20564;-77
2021/07/15 09:23:01;;;;;;;3.80;2.30;;;28.10;1.00;;;;;;5054380;28;20461;-78
2021/07/15 09:25:29;;;;;;;3.00;2.70;;;28.00;1.00;;;;;;5054970;28;20449;-78
2021/07/15 09:27:56;;;;;;;3.33;2.60;;;28.10;1.00;;;;;;5056074;28;20442;-76
2021/07/15 09:30:23;;;;;;;3.50;2.73;;;28.30;1.00;;;;;;5055961;28;21095;-79
2021/07/15 09:32:51;;;;;;;2.57;2.37;;;28.60;1.00;;;;;;5055310;28;20442;-80
2021/07/15 09:35:27;;;;;;;4.87;2.60;;;28.80;1.00;;;;;;5057281;28;20453;-77
2021/07/15 09:37:54;;;;;;;4.67;2.93;;;28.90;1.00;;;;;;5052932;28;20437;-77
2021/07/15 09:40:44;;;;;;;3.30;2.80;;;29.00;1.00;;;;;;5052533;28;20540;-79
2021/07/15 09:43:16;;;;;;;3.33;2.50;;;29.30;1.00;;;;;;5057197;28;20533;-78
2021/07/15 09:45:42;;;;;;;2.57;2.37;;;30.00;1.00;;;;;;5063718;28;20474;-77
2021/07/15 09:48:17;;;;;;;2.80;2.50;;;30.40;1.00;;;;;;5055744;28;21394;-78
2021/07/15 09:50:44;;;;;;;2.77;2.10;;;30.50;1.00;;;;;;5056703;28;20453;-79
2021/07/15 09:53:20;;;;;;;2.73;2.53;;;30.40;1.00;;;;;;5054918;28;20993;-79
2021/07/15 09:55:58;;;;;;;2.77;2.57;;;30.40;1.00;;;;;;5058095;28;20501;-77
2021/07/15 09:58:25;;;;;;;3.73;2.30;;;31.50;1.00;;;;;;5056227;28;20501;-78
2021/07/15 10:00:52;;;;;;;4.30;3.90;;;32.90;1.00;;;;;;5055282;28;20539;-79
2021/07/15 10:03:18;;;;;;;5.83;5.33;;;34.20;1.00;;;;;;5056527;28;20395;-79
2021/07/15 10:05:53;;;;;;;5.83;2.90;;;34.50;1.00;;;;;;5059999;28;20661;-78
2021/07/15 10:08:26;;;;;;;3.20;2.90;;;34.10;1.00;;;;;;5059652;28;20451;-77
2021/07/15 10:10:55;;;;;;;2.67;2.37;;;34.10;1.00;;;;;;5059088;28;20521;-81
2021/07/15 10:13:23;;;;;;;5.07;4.67;;;35.00;1.00;;;;;;5061277;28;21404;-80
2021/07/15 10:15:52;;;;;;;5.07;3.70;;;35.60;1.00;;;;;;5056783;28;21660;-79
2021/07/15 10:18:37;;;;;;;2.30;2.10;;;35.30;1.00;;;;;;5056445;28;20524;-77
2021/07/15 10:21:05;;;;;;;5.53;3.57;;;34.50;1.00;;;;;;5058728;28;20547;-78
2021/07/15 10:23:33;;;;;;;6.20;3.93;;;34.00;1.00;;;;;;5060003;28;20475;-81
2021/07/15 10:26:04;;;;;;;3.30;3.00;;;33.00;1.00;;;;;;5061688;28;20816;-80
2021/07/15 10:28:31;;;;;;;3.87;3.20;;;32.70;1.00;;;;;;5063114;28;20439;-77
2021/07/15 10:30:59;;;;;;;3.67;3.20;;;32.60;1.00;;;;;;5074886;28;20428;-77
2021/07/15 10:33:27;;;;;;;7.30;3.97;;;32.90;1.00;;;;;;5077792;27;20454;-78
2021/07/15 10:35:54;;;;;;;4.10;3.70;;;33.80;1.00;;;;;;5076604;27;20455;-78
2021/07/15 10:38:22;;;;;;;4.83;4.37;;;34.10;1.00;;;;;;5072217;27;21039;-77
2021/07/15 10:40:50;;;;;;;6.07;3.40;;;33.90;1.00;;;;;;5061855;28;20447;-77
2021/07/15 10:43:18;;;;;;;3.60;3.30;;;34.30;1.00;;;;;;5060929;28;21076;-78
2021/07/15 10:45:46;;;;;;;4.30;3.50;;;35.40;1.00;;;;;;5046461;28;20458;-79
2021/07/15 10:48:13;;;;;;;3.50;3.23;;;36.50;1.00;;;;;;5062073;28;20477;-78
2021/07/15 10:50:41;;;;;;;3.93;3.57;;;37.50;1.00;;;;;;5062132;28;21077;-77
2021/07/15 10:53:09;;;;;;;3.60;3.30;;;38.30;1.00;;;;;;5059424;28;20525;-79
2021/07/15 10:55:36;;;;;;;4.70;4.30;;;39.00;1.00;;;;;;5059002;28;20463;-79
2021/07/15 10:58:03;;;;;;;3.53;3.23;;;39.40;1.00;;;;;;5059039;28;20436;-76
2021/07/15 11:00:32;;;;;;;4.53;4.13;;;39.80;1.00;;;;;;5056278;28;21401;-78
2021/07/15 11:03:12;;;;;;;3.60;3.30;;;39.80;1.00;;;;;;5060151;28;20456;-79
2021/07/15 11:05:47;;;;;;;4.20;3.90;;;39.20;1.00;;;;;;5031351;28;20533;-79
2021/07/15 11:08:15;;;;;;;3.80;3.50;;;38.10;1.00;;;;;;5038183;28;20411;-78
2021/07/15 11:10:42;;;;;;;4.40;4.10;;;37.00;1.00;;;;;;5054256;28;20536;-78
2021/07/15 11:13:10;;;;;;;4.70;3.60;;;35.80;1.00;;;;;;5052061;28;20459;-78
2021/07/15 11:15:55;;;;;;;4.27;3.10;;;34.30;1.00;;;;;;5054688;28;20462;-78
2021/07/15 11:18:52;;;;;;;4.57;4.17;;;33.30;1.00;;;;;;5052426;28;20463;-78
2021/07/15 11:21:33;;;;;;;4.27;3.70;;;32.80;1.00;;;;;;5054876;28;20926;-78
2021/07/15 11:24:41;;;;;;;4.27;3.87;;;32.20;1.00;;;;;;5052539;28;20466;-77
2021/07/15 11:27:44;;;;;;;4.10;3.80;;;31.90;1.00;;;;;;5055981;28;20501;-78
2021/07/15 11:30:15;;;;;;;5.33;4.87;;;31.70;1.00;;;;;;5052489;28;20466;-77
2021/07/15 11:32:43;;;;;;;5.10;4.60;;;31.70;1.00;;;;;;5055945;28;21337;-75
2021/07/15 11:35:32;;;;;;;4.67;4.30;;;33.30;1.00;;;;;;5045082;28;20443;-79
2021/07/15 11:38:11;;;;;;;4.30;4.00;;;35.70;1.00;;;;;;5054994;28;21065;-78
2021/07/15 11:40:46;;;;;;;4.23;3.93;;;37.60;1.00;;;;;;5056908;28;20455;-77
2021/07/15 11:43:32;;;;;;;6.13;5.60;;;37.80;1.00;;;;;;5053776;28;22158;-79
2021/07/15 11:46:18;;;;;;;8.17;7.30;;;36.70;1.00;;;;;;5044917;28;21515;-80
2021/07/15 11:49:05;;;;;;;4.23;3.83;;;36.30;1.00;;;;;;5060096;28;20546;-79
2021/07/15 11:51:38;;;;;;;4.53;4.20;;;37.20;1.00;;;;;;5061366;28;21006;-80
2021/07/15 11:54:17;;;;;;;6.23;4.70;;;38.80;1.00;;;;;;5061565;28;20455;-81
2021/07/15 11:56:45;;;;;;;5.30;4.80;;;38.80;1.00;;;;;;5060533;28;20455;-80
2021/07/15 11:59:13;;;;;;;6.53;3.90;;;39.10;1.00;;;;;;5060419;28;20506;-79
2021/07/15 12:01:40;;;;;;;6.83;5.70;;;39.80;1.00;;;;;;5066894;28;20520;-78
2021/07/15 12:04:10;;;;;;;5.73;4.30;;;39.00;1.00;;;;;;5060291;28;20441;-80
2021/07/15 12:06:39;;;;;;;4.23;3.90;;;37.90;1.00;;;;;;5062923;28;20403;-77
2021/07/15 12:09:09;;;;;;;4.57;4.27;;;36.90;1.00;;;;;;5062783;28;20497;-79
2021/07/15 12:11:37;;;;;;;6.60;5.50;;;36.10;1.00;;;;;;5059217;28;20408;-78
2021/07/15 12:14:04;;;;;;;4.67;4.37;;;35.20;1.00;;;;;;5061879;28;20431;-78
2021/07/15 12:16:32;;;;;;;6.17;5.57;;;34.50;1.00;;;;;;5061102;28;20531;-77
2021/07/15 12:19:03;;;;;;;5.40;4.90;;;34.20;1.00;;;;;;5062805;28;20502;-77
2021/07/15 12:21:32;;;;;;;5.20;4.80;;;33.90;1.00;;;;;;5062152;28;20483;-77
2021/07/15 12:24:09;;;;;;;9.13;8.20;;;33.50;1.00;;;;;;5058128;28;20428;-78
2021/07/15 12:26:36;;;;;;;4.60;4.20;;;33.20;1.00;;;;;;5059094;28;20470;-78
2021/07/15 12:29:06;;;;;;;5.57;5.07;;;33.10;1.00;;;;;;5065316;28;20529;-77
2021/07/15 12:31:33;;;;;;;5.00;4.50;;;33.90;1.00;;;;;;5077018;28;20438;-78
2021/07/15 12:34:05;;;;;;;5.90;5.43;;;34.60;1.00;;;;;;5065001;28;20759;-79
2021/07/15 12:36:34;;;;;;;4.60;4.20;;;35.70;1.00;;;;;;5067857;28;20420;-78
2021/07/15 12:39:05;;;;;;;4.70;3.10;;;36.50;1.00;;;;;;5066742;27;20470;-78
2021/07/15 12:41:33;;;;;;;6.53;4.17;;;37.40;1.00;;;;;;5077052;27;21038;-79
2021/07/15 12:44:02;;;;;;;4.57;4.17;;;38.70;1.00;;;;;;5070116;28;20447;-76
2021/07/15 12:46:30;;;;;;;3.87;3.57;;;39.80;1.00;;;;;;5070985;28;20459;-79
2021/07/15 12:48:59;;;;;;;3.87;3.47;;;40.70;1.00;;;;;;5059696;28;20468;-80
2021/07/15 12:51:29;;;;;;;5.73;3.73;;;41.40;1.00;;;;;;5061240;28;20443;-77
2021/07/15 12:53:57;;;;;;;4.20;3.83;;;41.20;1.00;;;;;;5065515;28;20463;-79
2021/07/15 12:56:26;;;;;;;3.70;3.50;;;41.20;1.00;;;;;;5058440;28;20478;-78
2021/07/15 12:59:02;;;;;;;3.43;3.23;;;41.60;1.00;;;;;;5041013;28;20790;-80
2021/07/15 13:01:29;;;;;;;3.67;3.37;;;42.20;1.00;;;;;;5057674;28;20413;-80
2021/07/15 13:04:07;;;;;;;3.77;3.40;;;42.30;1.00;;;;;;5059283;28;20520;-79
2021/07/15 13:06:36;;;;;;;3.90;3.33;;;41.80;1.00;;;;;;5059670;28;20440;-77